Time;durP1;ratioP1;P1;durP2;ratioP2;P2;SDS_P1;SDS_P2;PMS_P1;PMS_P2;Temp;Humidity;BMP_temperature;BMP_pressure;BME280_temperature;BME280_humidity;BME280_pressure;Samples;Min_cycle;Max_cycle;Signal;HPM_P1;HPM_P2
2021/05/22 00:01:00;;;;;;;3.20;1.98;;;9.30;99.90;;;;;;6319319;28;20024;-79
2021/05/22 00:04:01;;;;;;;4.88;2.00;;;9.60;99.90;;;;;;6292613;28;20024;-79
2021/05/22 00:07:02;;;;;;;3.53;2.00;;;9.60;99.90;;;;;;6320297;28;20031;-79
2021/05/22 00:10:10;;;;;;;2.72;1.77;;;9.40;99.90;;;;;;6328734;28;20111;-78
2021/05/22 00:13:10;;;;;;;2.83;1.55;;;9.70;99.90;;;;;;6328306;28;20059;-78
2021/05/22 00:16:11;;;;;;;4.18;2.03;;;9.50;99.90;;;;;;6301306;28;20035;-79
2021/05/22 00:19:11;;;;;;;6.50;2.25;;;9.50;99.90;;;;;;6301998;28;20059;-78
2021/05/22 00:22:12;;;;;;;4.47;2.20;;;9.80;99.90;;;;;;6319893;28;20032;-79
2021/05/22 00:25:13;;;;;;;6.53;2.55;;;9.70;99.90;;;;;;6319864;28;20070;-78
2021/05/22 00:28:13;;;;;;;5.53;1.92;;;9.50;99.90;;;;;;6284771;28;20071;-79
2021/05/22 00:31:14;;;;;;;4.13;2.05;;;9.60;99.90;;;;;;6334450;28;20024;-78
2021/05/22 00:34:15;;;;;;;5.95;2.10;;;;;;;;;;6326447;28;20929;-79
2021/05/22 00:37:16;;;;;;;5.97;2.20;;;9.90;99.90;;;;;;6344630;28;20038;-78
2021/05/22 00:40:16;;;;;;;4.15;2.17;;;9.90;99.90;;;;;;6343015;28;20032;-79
2021/05/22 00:43:17;;;;;;;6.07;2.40;;;9.70;99.90;;;;;;6342927;28;20110;-78
2021/05/22 00:46:18;;;;;;;7.03;3.30;;;9.80;99.90;;;;;;6325889;28;20034;-79
2021/05/22 00:49:18;;;;;;;3.85;2.15;;;10.10;99.90;;;;;;6333247;28;20056;-79
2021/05/22 00:52:19;;;;;;;4.88;2.15;;;9.60;99.90;;;;;;6333741;28;20043;-79
2021/05/22 00:55:19;;;;;;;4.28;2.38;;;9.70;99.90;;;;;;6342685;28;20465;-78
2021/05/22 00:58:20;;;;;;;5.30;2.10;;;10.20;99.90;;;;;;6342932;28;20454;-79
2021/05/22 01:01:21;;;;;;;6.03;2.45;;;;;;;;;;6343969;28;20023;-78
2021/05/22 01:04:22;;;;;;;8.57;2.22;;;9.70;99.90;;;;;;6342428;28;20453;-78
2021/05/22 01:07:23;;;;;;;5.75;2.63;;;9.70;99.90;;;;;;6342459;28;20100;-78
2021/05/22 01:10:23;;;;;;;6.47;2.20;;;9.80;99.90;;;;;;6324991;28;20071;-79
2021/05/22 01:13:24;;;;;;;6.60;2.53;;;10.00;99.90;;;;;;6300659;28;20477;-78
2021/05/22 01:16:24;;;;;;;6.85;2.33;;;9.90;99.90;;;;;;6317080;28;20024;-78
2021/05/22 01:19:41;;;;;;;13.55;2.60;;;10.00;99.90;;;;;;6331102;28;20028;-78
2021/05/22 01:22:45;;;;;;;9.90;2.22;;;9.90;99.90;;;;;;6342407;28;20024;-79
2021/05/22 01:25:45;;;;;;;12.80;3.45;;;9.90;99.90;;;;;;6325153;28;20032;-79
2021/05/22 01:28:46;;;;;;;6.85;2.47;;;;;;;;;;6325218;28;20073;-79
2021/05/22 01:31:47;;;;;;;4.38;2.58;;;10.00;99.90;;;;;;6343202;28;20065;-78
2021/05/22 01:34:48;;;;;;;9.77;2.53;;;;;;;;;;6342114;28;20064;-78
2021/05/22 01:37:48;;;;;;;7.10;2.25;;;10.10;99.90;;;;;;6341955;28;20378;-79
2021/05/22 01:40:50;;;;;;;9.35;3.13;;;10.00;99.90;;;;;;6330167;28;20052;-79
2021/05/22 01:43:52;;;;;;;4.32;2.30;;;10.10;99.90;;;;;;6316688;28;20028;-79
2021/05/22 01:46:53;;;;;;;8.95;3.33;;;10.30;99.90;;;;;;6299892;28;20047;-78
2021/05/22 01:49:53;;;;;;;9.35;2.85;;;10.10;99.90;;;;;;6299763;28;20040;-79
2021/05/22 01:52:55;;;;;;;5.25;2.42;;;10.00;99.90;;;;;;6316394;28;20036;-78
2021/05/22 01:55:55;;;;;;;6.75;3.42;;;9.60;99.90;;;;;;6300315;28;20462;-79
2021/05/22 01:58:56;;;;;;;3.58;2.50;;;;;;;;;;6299928;28;20063;-79
2021/05/22 02:01:57;;;;;;;7.80;2.80;;;10.00;99.90;;;;;;6332273;28;20038;-79
2021/05/22 02:04:58;;;;;;;6.80;2.47;;;9.60;99.90;;;;;;6346652;28;20024;-79
2021/05/22 02:07:59;;;;;;;7.28;3.22;;;;;;;;;;6315960;28;20016;-78
2021/05/22 02:11:00;;;;;;;8.20;3.00;;;;;;;;;;6321552;28;20134;-79
2021/05/22 02:14:02;;;;;;;7.45;2.40;;;10.00;99.90;;;;;;6321466;28;20113;-78
2021/05/22 02:17:05;;;;;;;7.72;2.95;;;10.00;99.90;;;;;;6311331;28;20039;-78
2021/05/22 02:20:06;;;;;;;;;;;10.00;99.90;;;;;;6304754;28;20117;-79
2021/05/22 02:23:07;;;;;;;5.78;2.72;;;9.90;99.90;;;;;;6321099;28;20353;-79
2021/05/22 02:26:08;;;;;;;9.20;3.13;;;;;;;;;;6322547;28;20042;-78
2021/05/22 02:29:29;;;;;;;12.80;3.25;;;9.90;99.90;;;;;;6322343;28;20099;-79
2021/05/22 02:32:30;;;;;;;7.82;3.08;;;9.90;99.90;;;;;;6321003;28;20056;-78
2021/05/22 02:35:30;;;;;;;7.13;2.80;;;9.80;99.90;;;;;;6321027;28;20032;-78
2021/05/22 02:38:35;;;;;;;7.47;2.47;;;10.00;99.90;;;;;;6304226;28;20454;-79
2021/05/22 02:41:36;;;;;;;5.90;2.80;;;9.80;99.90;;;;;;6320915;28;20381;-78
2021/05/22 02:44:36;;;;;;;4.15;2.83;;;9.90;99.90;;;;;;6303696;28;20024;-79
2021/05/22 02:47:37;;;;;;;9.60;3.28;;;;;;;;;;6320157;28;20524;-78
2021/05/22 02:50:38;;;;;;;8.00;2.80;;;9.80;99.90;;;;;;6320592;28;20474;-79
2021/05/22 02:53:38;;;;;;;10.18;3.67;;;9.90;99.90;;;;;;6303516;28;20546;-79
2021/05/22 02:56:39;;;;;;;10.65;2.80;;;10.20;99.90;;;;;;6320304;28;20024;-78
2021/05/22 02:59:40;;;;;;;6.35;2.38;;;10.20;99.90;;;;;;6303772;28;20032;-78
2021/05/22 03:02:41;;;;;;;4.57;2.88;;;9.90;99.90;;;;;;6304244;28;20081;-78
2021/05/22 03:05:41;;;;;;;9.13;2.63;;;9.80;99.90;;;;;;6333664;28;20442;-78
2021/05/22 03:08:49;;;;;;;11.40;2.85;;;9.70;99.90;;;;;;6321602;28;20050;-78
2021/05/22 03:11:50;;;;;;;7.43;3.08;;;9.70;99.90;;;;;;6303285;28;20049;-78
2021/05/22 03:14:51;;;;;;;9.98;2.95;;;9.80;99.90;;;;;;6303374;28;20032;-78
2021/05/22 03:17:52;;;;;;;14.18;2.80;;;9.70;99.90;;;;;;6318839;28;20039;-78
2021/05/22 03:20:54;;;;;;;8.63;2.60;;;9.50;99.90;;;;;;6302828;28;20032;-78
2021/05/22 03:23:55;;;;;;;5.60;2.60;;;9.60;99.90;;;;;;6286178;28;20039;-78
2021/05/22 03:26:56;;;;;;;9.05;2.92;;;9.70;99.90;;;;;;6340704;28;20032;-78
2021/05/22 03:29:58;;;;;;;6.93;2.80;;;;;;;;;;6344839;28;20447;-78
2021/05/22 03:32:58;;;;;;;7.82;2.90;;;9.70;99.00;;;;;;6346192;28;20096;-78
2021/05/22 03:35:59;;;;;;;8.10;2.88;;;10.10;99.90;;;;;;6346253;28;20031;-78
2021/05/22 03:38:59;;;;;;;9.70;3.10;;;9.90;99.90;;;;;;6346463;28;20038;-78
2021/05/22 03:42:00;;;;;;;8.82;2.80;;;9.70;99.90;;;;;;6344268;28;20066;-78
2021/05/22 03:45:00;;;;;;;6.25;2.63;;;10.20;99.90;;;;;;6319219;28;20051;-78
2021/05/22 03:48:01;;;;;;;7.82;2.85;;;9.70;99.90;;;;;;6318984;28;20074;-78
2021/05/22 03:51:02;;;;;;;10.23;3.00;;;10.00;99.90;;;;;;6320460;28;20059;-78
2021/05/22 03:54:03;;;;;;;18.25;3.83;;;9.60;99.90;;;;;;6318910;28;20036;-78
2021/05/22 03:57:04;;;;;;;6.75;2.60;;;9.70;99.90;;;;;;6318970;28;20512;-78
2021/05/22 04:00:09;;;;;;;6.25;2.70;;;9.80;99.90;;;;;;6319232;28;20127;-79
2021/05/22 04:03:09;;;;;;;5.70;2.55;;;9.60;99.90;;;;;;6320248;28;20093;-78
2021/05/22 04:06:10;;;;;;;10.60;2.83;;;10.30;99.90;;;;;;6319994;28;20028;-78
2021/05/22 04:09:10;;;;;;;9.40;3.00;;;9.90;99.90;;;;;;6320233;28;20111;-79
2021/05/22 04:12:11;;;;;;;9.70;3.22;;;9.60;99.90;;;;;;6342744;28;20047;-78
2021/05/22 04:15:12;;;;;;;9.88;3.65;;;10.10;99.90;;;;;;6343772;28;20106;-78
2021/05/22 04:18:13;;;;;;;10.18;3.38;;;9.60;99.90;;;;;;6344759;28;20439;-79
2021/05/22 04:21:14;;;;;;;9.20;3.13;;;9.60;99.90;;;;;;6345071;28;20055;-79
2021/05/22 04:24:14;;;;;;;9.18;2.63;;;9.90;99.90;;;;;;6343033;28;20533;-79
2021/05/22 04:27:15;;;;;;;8.65;2.50;;;9.80;99.90;;;;;;6345504;28;20084;-78
2021/05/22 04:30:17;;;;;;;11.02;3.38;;;9.60;99.90;;;;;;6344894;28;20074;-79
2021/05/22 04:33:18;;;;;;;9.73;2.92;;;9.50;99.90;;;;;;6326289;28;20043;-79
2021/05/22 04:36:19;;;;;;;10.95;2.83;;;9.80;99.90;;;;;;6326430;28;20155;-79
2021/05/22 04:39:20;;;;;;;10.95;2.90;;;9.50;99.70;;;;;;6344477;28;20473;-78
2021/05/22 04:42:20;;;;;;;7.18;2.90;;;9.50;99.90;;;;;;6333233;28;20397;-78
2021/05/22 04:45:21;;;;;;;6.60;2.53;;;9.60;99.90;;;;;;6318114;28;20446;-79
2021/05/22 04:48:21;;;;;;;10.27;3.28;;;9.60;99.90;;;;;;6317547;28;20478;-79
2021/05/22 04:51:23;;;;;;;7.32;2.97;;;9.70;99.80;;;;;;6317652;28;20036;-78
2021/05/22 04:54:24;;;;;;;6.57;2.40;;;9.70;99.90;;;;;;6317678;28;20039;-79
2021/05/22 04:57:24;;;;;;;7.70;3.65;;;9.90;99.50;;;;;;6317689;28;20039;-78
2021/05/22 05:00:25;;;;;;;10.02;2.80;;;9.70;99.30;;;;;;6317425;28;20028;-79
2021/05/22 05:03:25;;;;;;;7.07;2.72;;;9.60;99.90;;;;;;6300852;28;20036;-78
2021/05/22 05:06:26;;;;;;;8.48;3.10;;;9.50;99.90;;;;;;6318647;28;20031;-79
2021/05/22 05:09:27;;;;;;;7.82;2.67;;;;;;;;;;6318790;28;20040;-78
2021/05/22 05:12:28;;;;;;;8.07;2.65;;;9.30;99.90;;;;;;6318691;28;20363;-79
2021/05/22 05:15:29;;;;;;;8.43;2.55;;;9.50;99.90;;;;;;6317566;28;20051;-78
2021/05/22 05:18:30;;;;;;;5.47;2.78;;;;;;;;;;6325858;28;20024;-78
2021/05/22 05:21:31;;;;;;;7.88;3.15;;;9.60;99.90;;;;;;6334031;28;20022;-78
2021/05/22 05:24:32;;;;;;;10.30;2.70;;;;;;;;;;6342198;28;20031;-79
2021/05/22 05:27:33;;;;;;;8.15;2.83;;;;;;;;;;6324394;28;20368;-78
2021/05/22 05:30:34;;;;;;;6.47;2.63;;;;;;;;;;6318275;28;20435;-78
2021/05/22 05:33:34;;;;;;;6.63;2.40;;;9.80;99.90;;;;;;6316714;28;20356;-78
2021/05/22 05:36:36;;;;;;;9.55;2.80;;;;;;;;;;6318129;28;20031;-78
2021/05/22 05:39:37;;;;;;;10.10;2.80;;;;;;;;;;6318320;28;20031;-78
2021/05/22 05:42:38;;;;;;;7.88;2.70;;;;;;;;;;6318007;28;20097;-79
2021/05/22 05:45:39;;;;;;;9.35;2.90;;;;;;;;;;6318625;28;20039;-78
2021/05/22 05:48:39;;;;;;;11.25;2.47;;;9.80;99.90;;;;;;6318320;28;20051;-78
2021/05/22 05:51:40;;;;;;;7.57;2.67;;;9.80;99.90;;;;;;6318119;28;20064;-79
2021/05/22 05:54:41;;;;;;;8.65;3.20;;;;;;;;;;6318215;28;20028;-78
2021/05/22 05:57:42;;;;;;;7.80;2.70;;;9.90;99.90;;;;;;6317974;28;20032;-79
2021/05/22 06:00:42;;;;;;;6.85;2.95;;;9.90;99.90;;;;;;6317994;28;20020;-78
2021/05/22 06:03:43;;;;;;;11.63;3.30;;;9.90;99.90;;;;;;6335387;28;20028;-78
2021/05/22 06:06:44;;;;;;;7.85;2.95;;;;;;;;;;6329831;28;20081;-78
2021/05/22 06:09:46;;;;;;;10.73;2.90;;;10.00;99.90;;;;;;6342115;28;20106;-78
2021/05/22 06:12:47;;;;;;;9.27;2.97;;;10.00;99.90;;;;;;6343256;28;20032;-79
2021/05/22 06:15:50;;;;;;;6.10;2.50;;;9.90;99.90;;;;;;6324918;28;20038;-79
2021/05/22 06:18:53;;;;;;;8.25;2.80;;;;;;;;;;6341325;28;20028;-79
2021/05/22 06:21:53;;;;;;;8.48;2.90;;;10.00;99.90;;;;;;6332942;28;20020;-79
2021/05/22 06:24:54;;;;;;;5.32;2.35;;;9.90;99.90;;;;;;6316495;28;20458;-79
2021/05/22 06:27:54;;;;;;;12.85;4.47;;;10.20;99.90;;;;;;6317531;28;20036;-82
2021/05/22 06:30:55;;;;;;;13.65;4.70;;;10.20;99.90;;;;;;6315877;28;20028;-81
2021/05/22 06:33:56;;;;;;;10.10;3.63;;;10.30;99.90;;;;;;6299139;28;20061;-83
2021/05/22 06:36:57;;;;;;;13.65;3.70;;;;;;;;;;6299223;28;20121;-81
2021/05/22 06:40:00;;;;;;;9.63;3.45;;;10.40;97.20;;;;;;6311312;28;20385;-80
2021/05/22 06:43:01;;;;;;;6.40;2.88;;;10.30;99.90;;;;;;6284734;28;20031;-84
2021/05/22 06:49:15;;;;;;;8.07;2.92;;;10.70;99.90;;;;;;6295469;28;20079;-82
2021/05/22 06:52:16;;;;;;;9.18;3.00;;;10.70;99.90;;;;;;6299652;28;20039;-81
2021/05/22 06:55:17;;;;;;;11.32;3.10;;;;;;;;;;6299961;28;20059;-84
2021/05/22 06:58:18;;;;;;;8.48;2.50;;;11.00;95.70;;;;;;6321544;28;20081;-86
2021/05/22 07:01:19;;;;;;;6.35;2.80;;;;;;;;;;6291282;28;20702;-83
2021/05/22 07:04:20;;;;;;;10.25;2.65;;;;;;;;;;6305033;28;20369;-86
2021/05/22 07:07:21;;;;;;;5.47;2.65;;;12.60;99.90;;;;;;6321684;28;20055;-81
2021/05/22 07:10:21;;;;;;;7.97;3.05;;;13.30;99.90;;;;;;6299273;28;20457;-85
2021/05/22 07:13:22;;;;;;;7.82;3.28;;;12.80;99.90;;;;;;6327389;28;20043;-84
2021/05/22 07:16:22;;;;;;;7.05;2.65;;;13.00;99.90;;;;;;6325043;28;20020;-87
2021/05/22 07:19:24;;;;;;;8.30;3.28;;;;;;;;;;6328082;28;20028;-84
2021/05/22 07:22:24;;;;;;;12.40;2.60;;;13.70;99.90;;;;;;6344982;28;20067;-85
2021/05/22 07:25:25;;;;;;;6.78;3.00;;;;;;;;;;6306809;28;20028;-82
2021/05/22 07:28:26;;;;;;;8.38;2.72;;;13.40;99.90;;;;;;6321372;28;20081;-84
2021/05/22 07:31:27;;;;;;;8.13;3.15;;;13.50;92.60;;;;;;6307002;28;20516;-85
2021/05/22 07:34:27;;;;;;;11.90;3.05;;;;;;;;;;6327655;28;20044;-83
2021/05/22 07:37:28;;;;;;;8.15;2.50;;;;;;;;;;6344780;28;20020;-84
2021/05/22 07:40:29;;;;;;;8.48;2.78;;;13.20;99.90;;;;;;6327633;28;20042;-86
2021/05/22 07:43:30;;;;;;;8.15;3.30;;;;;;;;;;6306000;28;20023;-85
2021/05/22 07:46:31;;;;;;;9.45;3.13;;;;;;;;;;6318309;28;20481;-87
2021/05/22 07:49:37;;;;;;;7.78;2.65;;;13.40;98.30;;;;;;6293397;28;20034;-84
2021/05/22 07:52:40;;;;;;;6.45;2.45;;;13.50;92.20;;;;;;6303300;28;20035;-80
2021/05/22 07:55:41;;;;;;;;;;;13.40;98.60;;;;;;6303252;28;20043;-82
2021/05/22 07:58:42;;;;;;;6.30;3.22;;;13.20;93.60;;;;;;6302281;28;19904;-84
2021/05/22 08:01:42;;;;;;;8.68;4.07;;;13.10;93.40;;;;;;6285312;28;20389;-82
2021/05/22 08:04:43;;;;;;;10.43;2.85;;;13.10;93.40;;;;;;6299709;28;20580;-85
2021/05/22 08:07:44;;;;;;;8.90;2.70;;;13.30;92.80;;;;;;6301998;28;20366;-83
2021/05/22 08:10:45;;;;;;;5.50;2.55;;;13.40;93.80;;;;;;6302256;28;20063;-81
2021/05/22 08:13:45;;;;;;;7.28;2.60;;;13.40;93.10;;;;;;6344026;28;20044;-81
2021/05/22 08:16:46;;;;;;;5.32;2.38;;;13.50;93.30;;;;;;6343968;28;20061;-81
2021/05/22 08:19:47;;;;;;;6.95;2.58;;;;;;;;;;6310006;28;20027;-83
2021/05/22 08:22:49;;;;;;;7.10;2.50;;;13.60;99.90;;;;;;6303798;28;20055;-80
2021/05/22 08:25:50;;;;;;;6.70;2.60;;;;;;;;;;6318895;28;20024;-81
2021/05/22 08:28:50;;;;;;;8.85;2.30;;;14.40;98.90;;;;;;6286659;28;20085;-76
2021/05/22 08:31:51;;;;;;;5.15;2.25;;;14.30;98.90;;;;;;6319787;28;20541;-78
2021/05/22 08:34:52;;;;;;;7.07;2.30;;;14.70;98.30;;;;;;6319355;28;20397;-79
2021/05/22 08:37:52;;;;;;;8.48;2.42;;;14.20;97.70;;;;;;6318087;28;20076;-82
2021/05/22 08:40:55;;;;;;;12.10;2.75;;;14.30;97.50;;;;;;6300955;28;20061;-83
2021/05/22 08:43:56;;;;;;;6.60;2.85;;;;;;;;;;6310624;28;20617;-84
2021/05/22 08:46:57;;;;;;;5.63;2.38;;;15.10;95.50;;;;;;6308267;28;20048;-83
2021/05/22 08:49:58;;;;;;;8.90;2.58;;;15.10;93.90;;;;;;6285435;28;20115;-84
2021/05/22 08:52:59;;;;;;;6.28;2.80;;;;;;;;;;6278626;28;20376;-83
2021/05/22 08:55:59;;;;;;;7.57;2.03;;;15.70;94.30;;;;;;6314953;28;20025;-83
2021/05/22 08:59:01;;;;;;;3.92;2.22;;;16.20;99.90;;;;;;6317486;28;20043;-83
2021/05/22 09:02:02;;;;;;;4.88;2.20;;;;;;;;;;6305964;28;20080;-83
2021/05/22 09:05:03;;;;;;;7.35;2.50;;;;;;;;;;6344241;28;20032;-81
2021/05/22 09:08:08;;;;;;;5.55;2.13;;;15.10;90.80;;;;;;6320506;28;20030;-80
2021/05/22 09:11:09;;;;;;;6.18;2.92;;;15.70;94.30;;;;;;6317546;28;20032;-84
2021/05/22 09:14:09;;;;;;;7.75;2.35;;;15.90;82.00;;;;;;6294730;28;20062;-83
2021/05/22 09:17:11;;;;;;;4.90;2.40;;;16.60;78.40;;;;;;6300349;28;20020;-83
2021/05/22 09:20:17;;;;;;;4.75;2.30;;;17.30;77.00;;;;;;6268819;28;20031;-82
2021/05/22 09:23:22;;;;;;;5.18;2.33;;;17.90;68.80;;;;;;6288858;28;20489;-83
2021/05/22 09:26:32;;;;;;;4.85;2.28;;;17.80;68.00;;;;;;6308460;28;20446;-82
2021/05/22 09:29:32;;;;;;;3.97;2.17;;;17.80;69.10;;;;;;6325279;28;20027;-80
2021/05/22 09:32:33;;;;;;;5.78;2.30;;;;;;;;;;6324829;28;20036;-81
2021/05/22 09:35:34;;;;;;;4.72;2.35;;;18.70;87.60;;;;;;6325208;28;20519;-80
2021/05/22 09:38:36;;;;;;;10.13;2.40;;;18.40;68.60;;;;;;6308032;28;20057;-81
2021/05/22 09:41:37;;;;;;;4.80;2.28;;;18.30;69.80;;;;;;6325145;28;20128;-82
2021/05/22 09:44:38;;;;;;;4.50;2.20;;;17.70;67.50;;;;;;6335267;28;20036;-81
2021/05/22 09:47:39;;;;;;;5.20;2.30;;;17.40;83.60;;;;;;6282746;28;20131;-79
2021/05/22 09:50:50;;;;;;;5.22;2.00;;;17.70;68.30;;;;;;6299935;28;20044;-81
2021/05/22 09:53:50;;;;;;;3.13;2.13;;;18.20;68.30;;;;;;6311768;28;20485;-81
2021/05/22 09:56:51;;;;;;;2.75;2.10;;;18.60;66.40;;;;;;6284462;28;20026;-80
2021/05/22 10:00:17;;;;;;;4.88;2.33;;;18.80;82.70;;;;;;6317437;28;20698;-81
2021/05/22 10:03:24;;;;;;;4.22;2.00;;;18.90;64.20;;;;;;6316717;28;20040;-81
2021/05/22 10:06:39;;;;;;;5.15;2.05;;;19.10;65.20;;;;;;6299338;28;20032;-80
2021/05/22 10:09:40;;;;;;;3.85;2.53;;;19.50;63.60;;;;;;6316715;28;20393;-80
2021/05/22 10:12:41;;;;;;;7.78;2.70;;;19.90;79.30;;;;;;6282474;28;20044;-80
2021/05/22 10:15:43;;;;;;;7.97;2.07;;;19.90;61.80;;;;;;6283119;28;20024;-81
2021/05/22 10:18:43;;;;;;;5.13;2.47;;;19.30;59.60;;;;;;6299763;28;20020;-79
2021/05/22 10:21:44;;;;;;;4.78;2.28;;;19.10;61.30;;;;;;6319244;28;20540;-78
2021/05/22 10:24:45;;;;;;;6.38;2.03;;;19.00;61.60;;;;;;6304582;28;20020;-79
2021/05/22 10:27:46;;;;;;;4.50;2.03;;;19.10;60.50;;;;;;6304953;28;20512;-80
2021/05/22 10:30:47;;;;;;;7.40;2.42;;;18.60;64.70;;;;;;6304486;28;20089;-79
2021/05/22 10:33:47;;;;;;;3.28;2.00;;;19.60;75.60;;;;;;6287214;28;20068;-78
2021/05/22 10:36:53;;;;;;;5.70;1.83;;;19.40;62.10;;;;;;6303927;28;20032;-80
2021/05/22 10:39:53;;;;;;;3.53;1.90;;;19.70;57.80;;;;;;6304418;28;20016;-78
2021/05/22 10:42:55;;;;;;;3.97;2.20;;;19.50;75.10;;;;;;6303941;28;20027;-79
2021/05/22 10:45:59;;;;;;;4.88;2.13;;;18.50;83.40;;;;;;6304084;28;20020;-80
2021/05/22 10:49:00;;;;;;;4.35;2.40;;;17.10;84.60;;;;;;6299137;28;20493;-80
2021/05/22 10:52:17;;;;;;;7.75;2.30;;;18.00;79.00;;;;;;6287250;28;20035;-79
2021/05/22 10:55:18;;;;;;;2.25;1.60;;;18.40;91.70;;;;;;6303971;28;20059;-80
2021/05/22 10:58:19;;;;;;;4.18;2.00;;;;;;;;;;6288738;28;20036;-80
2021/05/22 11:01:23;;;;;;;3.28;2.28;;;19.60;75.90;;;;;;6338136;28;20539;-80
2021/05/22 11:04:25;;;;;;;3.35;1.85;;;18.60;80.80;;;;;;6344527;28;20070;-84
2021/05/22 11:07:28;;;;;;;3.90;2.13;;;18.50;63.40;;;;;;6289205;28;20020;-80
2021/05/22 11:10:44;;;;;;;;;;;19.00;64.20;;;;;;6275088;28;20035;-82
2021/05/22 11:13:45;;;;;;;4.32;1.88;;;19.60;60.60;;;;;;6320908;28;20028;-80
2021/05/22 11:16:46;;;;;;;5.90;1.90;;;20.40;59.50;;;;;;6292667;28;20103;-81
2021/05/22 11:20:02;;;;;;;3.63;1.80;;;19.10;61.10;;;;;;6320442;28;20028;-80
2021/05/22 11:23:03;;;;;;;4.97;1.77;;;19.20;58.90;;;;;;6322084;28;20474;-81
2021/05/22 11:26:04;;;;;;;5.68;2.80;;;18.90;61.50;;;;;;6309929;28;20043;-77
2021/05/22 11:29:05;;;;;;;3.28;1.60;;;;;;;;;;6308536;28;20024;-84
2021/05/22 11:32:11;;;;;;;4.13;1.75;;;18.90;56.60;;;;;;6327194;28;20034;-85
2021/05/22 11:38:29;;;;;;;8.00;2.45;;;19.00;63.50;;;;;;6324659;28;20036;-82
2021/05/22 11:41:31;;;;;;;5.13;2.13;;;18.40;79.10;;;;;;6324588;28;20142;-84
2021/05/22 11:44:32;;;;;;;3.80;2.15;;;18.20;61.20;;;;;;6301520;28;20024;-81
2021/05/22 11:47:36;;;;;;;5.90;2.58;;;17.80;58.40;;;;;;6287938;28;20095;-80
2021/05/22 11:50:37;;;;;;;5.10;1.65;;;;;;;;;;6307311;28;20148;-84
2021/05/22 11:53:39;;;;;;;3.63;1.73;;;18.00;57.90;;;;;;6324250;28;20798;-79
2021/05/22 11:56:40;;;;;;;3.97;1.73;;;18.20;63.50;;;;;;6306019;28;20085;-78
2021/05/22 11:59:41;;;;;;;3.63;1.58;;;18.50;63.00;;;;;;6326796;28;20035;-83
2021/05/22 12:02:42;;;;;;;3.78;1.88;;;18.50;90.50;;;;;;6327875;28;20469;-78
